Time;durP1;ratioP1;P1;durP2;ratioP2;P2;SDS_P1;SDS_P2;PMS_P1;PMS_P2;Temp;Humidity;BMP_temperature;BMP_pressure;BME280_temperature;BME280_humidity;BME280_pressure;Samples;Min_cycle;Max_cycle;Signal;HPM_P1;HPM_P2
2022/01/28 00:01:38;;;;;;;3.73;2.07;;;6.70;1.00;;;;;;5050472;28;20475;-80
2022/01/28 00:04:13;;;;;;;3.80;1.47;;;6.70;1.00;;;;;;5052750;28;20482;-79
2022/01/28 00:06:42;;;;;;;1.70;1.60;;;6.70;1.00;;;;;;5054629;28;20943;-80
2022/01/28 00:09:10;;;;;;;2.47;2.00;;;6.70;1.00;;;;;;5055656;28;20504;-79
2022/01/28 00:11:40;;;;;;;3.03;1.70;;;6.80;1.00;;;;;;5057861;28;20494;-81
2022/01/28 00:14:17;;;;;;;3.67;2.40;;;6.70;1.00;;;;;;5045033;28;20881;-82
2022/01/28 00:38:53;;;;;;;3.53;2.17;;;6.70;1.00;;;;;;5053623;28;20517;-80
2022/01/28 00:41:22;;;;;;;3.17;1.80;;;6.60;1.00;;;;;;5080457;28;20474;-80
2022/01/28 00:43:52;;;;;;;2.10;1.90;;;6.80;1.00;;;;;;5049698;28;20466;-81
2022/01/28 00:46:20;;;;;;;2.43;2.23;;;6.70;1.00;;;;;;5047459;28;20569;-81
2022/01/28 00:48:48;;;;;;;3.60;2.00;;;6.70;1.00;;;;;;5051303;28;20948;-80
2022/01/28 00:51:17;;;;;;;4.10;2.20;;;6.70;1.00;;;;;;5055710;28;20456;-80
2022/01/28 00:53:45;;;;;;;2.70;2.50;;;6.70;1.00;;;;;;5051787;28;20448;-80
2022/01/28 00:56:13;;;;;;;2.40;1.73;;;6.80;1.00;;;;;;5066499;28;20449;-80
2022/01/28 00:58:41;;;;;;;4.80;2.60;;;6.80;1.00;;;;;;5054711;28;20455;-79
2022/01/28 01:01:11;;;;;;;2.63;2.00;;;6.80;1.00;;;;;;5049608;28;20533;-79
2022/01/28 01:03:39;;;;;;;3.07;1.90;;;6.80;1.00;;;;;;5059830;28;20463;-80
2022/01/28 01:06:07;;;;;;;4.20;2.27;;;6.70;1.00;;;;;;5048430;28;20463;-80
2022/01/28 01:08:36;;;;;;;3.60;2.17;;;6.90;99.90;;;;;;5052041;28;20455;-79
2022/01/28 01:11:05;;;;;;;1.93;1.70;;;6.80;99.90;;;;;;5065901;28;20458;-81
2022/01/28 01:13:36;;;;;;;2.73;1.93;;;6.80;99.90;;;;;;5048558;28;20448;-79
2022/01/28 01:16:06;;;;;;;2.40;1.50;;;6.80;99.90;;;;;;5057968;28;20471;-79
2022/01/28 01:18:44;;;;;;;2.70;1.93;;;6.70;99.90;;;;;;5055216;28;20547;-79
2022/01/28 01:21:18;;;;;;;2.90;1.90;;;6.70;99.90;;;;;;5061140;28;20982;-79
2022/01/28 01:23:51;;;;;;;3.38;2.00;;;6.70;99.90;;;;;;5060630;28;20532;-79
2022/01/28 01:26:27;;;;;;;2.83;1.55;;;6.70;99.90;;;;;;5057946;28;20225;-79
2022/01/28 01:28:55;;;;;;;2.50;1.80;;;6.60;99.90;;;;;;5061279;28;20233;-80
2022/01/28 01:31:24;;;;;;;2.00;1.80;;;6.60;99.90;;;;;;5043424;28;20197;-80
2022/01/28 01:33:59;;;;;;;1.70;1.58;;;6.50;99.90;;;;;;5050597;28;20491;-78
2022/01/28 01:36:27;;;;;;;2.85;1.55;;;6.50;99.90;;;;;;5041370;28;20232;-79
2022/01/28 01:38:55;;;;;;;3.92;2.40;;;6.60;99.90;;;;;;5049172;28;20202;-80
2022/01/28 01:41:31;;;;;;;2.00;1.80;;;6.70;99.90;;;;;;5056104;28;20204;-80
2022/01/28 01:44:06;;;;;;;2.23;1.77;;;6.60;99.90;;;;;;5051215;28;20447;-80
2022/01/28 01:46:47;;;;;;;4.40;1.97;;;6.60;99.90;;;;;;5053443;28;20770;-80
2022/01/28 01:52:08;;;;;;;2.10;1.70;;;6.60;99.90;;;;;;5035834;28;20456;-80
2022/01/28 01:54:39;;;;;;;1.67;1.57;;;6.70;99.90;;;;;;5054008;28;20566;-80
2022/01/28 01:57:09;;;;;;;2.90;1.80;;;6.60;99.90;;;;;;5053204;28;20478;-81
2022/01/28 01:59:39;;;;;;;2.33;2.13;;;6.60;99.90;;;;;;5052992;28;20455;-80
2022/01/28 02:02:08;;;;;;;1.83;1.73;;;6.60;99.90;;;;;;5051516;28;20499;-79
2022/01/28 02:04:37;;;;;;;2.90;2.00;;;6.60;99.90;;;;;;5072262;28;20539;-80
2022/01/28 02:07:06;;;;;;;2.93;1.70;;;6.70;99.90;;;;;;5048022;28;20490;-79
2022/01/28 02:09:34;;;;;;;1.57;1.47;;;6.70;99.90;;;;;;5046518;28;20474;-79
2022/01/28 02:12:03;;;;;;;2.13;1.92;;;6.70;99.90;;;;;;5049062;28;20505;-80
2022/01/28 02:14:31;;;;;;;3.43;1.43;;;6.60;99.90;;;;;;5048498;28;20189;-80
2022/01/28 02:17:00;;;;;;;2.90;1.17;;;6.60;99.90;;;;;;5043449;28;20483;-80
2022/01/28 02:19:28;;;;;;;2.60;1.90;;;6.60;99.90;;;;;;5051527;28;20469;-79
2022/01/28 02:21:58;;;;;;;5.23;2.07;;;6.50;99.90;;;;;;5052668;28;20480;-79
2022/01/28 02:24:31;;;;;;;1.57;1.47;;;6.50;99.90;;;;;;5044733;28;20474;-81
2022/01/28 02:27:00;;;;;;;5.57;1.77;;;6.50;99.90;;;;;;5055426;28;20470;-78
2022/01/28 02:29:30;;;;;;;4.43;1.60;;;6.50;99.90;;;;;;5045779;28;20203;-79
2022/01/28 02:31:59;;;;;;;2.33;1.67;;;6.40;99.90;;;;;;5050745;28;20448;-80
2022/01/28 02:34:28;;;;;;;2.25;1.55;;;6.40;99.90;;;;;;5056703;28;20204;-79
2022/01/28 02:36:57;;;;;;;2.88;2.20;;;6.40;99.90;;;;;;5046569;28;20221;-80
2022/01/28 02:39:26;;;;;;;1.53;1.43;;;6.40;99.90;;;;;;5058000;28;20224;-79
2022/01/28 02:42:02;;;;;;;1.67;1.58;;;6.40;99.90;;;;;;5045200;28;20459;-79
2022/01/28 02:44:44;;;;;;;1.57;1.47;;;6.40;99.90;;;;;;5051002;28;20204;-80
2022/01/28 02:47:15;;;;;;;2.33;1.80;;;6.40;99.90;;;;;;5051642;28;20963;-79
2022/01/28 02:49:45;;;;;;;1.93;1.73;;;6.40;99.90;;;;;;5048564;28;20466;-80
2022/01/28 02:52:23;;;;;;;2.37;1.77;;;6.40;99.90;;;;;;5050164;28;20451;-80
2022/01/28 02:54:51;;;;;;;2.37;1.97;;;6.40;99.90;;;;;;5048264;28;20438;-79
2022/01/28 02:57:25;;;;;;;2.65;1.65;;;6.40;99.90;;;;;;5049585;28;20594;-78
2022/01/28 02:59:53;;;;;;;3.28;1.70;;;6.60;99.90;;;;;;5050436;28;20218;-79
2022/01/28 03:02:22;;;;;;;2.10;1.35;;;6.40;99.90;;;;;;5054599;28;20205;-79
2022/01/28 03:05:30;;;;;;;3.23;1.50;;;6.40;99.90;;;;;;5047887;28;20210;-79
2022/01/28 03:08:02;;;;;;;4.25;1.92;;;6.40;99.90;;;;;;5045809;28;20487;-80
2022/01/28 03:10:40;;;;;;;2.88;1.60;;;6.40;99.90;;;;;;5044398;28;20201;-80
2022/01/28 03:13:28;;;;;;;2.03;1.87;;;6.40;99.90;;;;;;5053656;28;20282;-80
2022/01/28 03:16:07;;;;;;;2.40;1.70;;;6.40;99.90;;;;;;5040416;28;20455;-80
2022/01/28 03:18:47;;;;;;;1.90;1.80;;;6.40;99.90;;;;;;5052786;28;20453;-78
2022/01/28 03:21:26;;;;;;;2.53;1.40;;;6.40;99.90;;;;;;5050387;28;20193;-79
2022/01/28 03:23:57;;;;;;;5.22;2.13;;;6.40;99.90;;;;;;5052158;28;20483;-79
2022/01/28 03:26:27;;;;;;;2.60;2.17;;;6.20;99.90;;;;;;5046636;28;20263;-79
2022/01/28 03:28:58;;;;;;;3.30;1.80;;;6.40;99.90;;;;;;5055304;28;20494;-79
2022/01/28 03:31:26;;;;;;;3.40;2.00;;;6.30;99.90;;;;;;5048928;28;20500;-79
2022/01/28 03:33:55;;;;;;;2.53;1.70;;;6.40;99.90;;;;;;5050945;28;20462;-79
2022/01/28 03:36:23;;;;;;;2.40;2.20;;;6.30;99.90;;;;;;5050677;28;20507;-80
2022/01/28 03:38:51;;;;;;;4.00;2.17;;;6.40;99.90;;;;;;5056646;28;20481;-79
2022/01/28 03:41:23;;;;;;;2.53;1.80;;;6.30;99.90;;;;;;5052860;28;20204;-79
2022/01/28 03:43:57;;;;;;;2.63;2.00;;;6.40;99.90;;;;;;5057769;28;20468;-80
2022/01/28 03:46:29;;;;;;;2.85;1.75;;;6.30;99.90;;;;;;5049748;28;20497;-80
2022/01/28 03:48:58;;;;;;;3.08;1.70;;;6.40;99.90;;;;;;5066909;28;20295;-80
2022/01/28 03:51:27;;;;;;;2.03;1.52;;;6.40;99.90;;;;;;5056491;28;20201;-80
2022/01/28 03:53:56;;;;;;;3.10;1.45;;;6.40;99.90;;;;;;5059138;28;20224;-80
2022/01/28 03:56:25;;;;;;;1.93;1.67;;;6.40;99.90;;;;;;5050135;28;20217;-82
2022/01/28 03:58:53;;;;;;;2.40;1.73;;;6.40;99.90;;;;;;5055125;28;20819;-80
2022/01/28 04:01:26;;;;;;;3.22;2.03;;;6.30;99.90;;;;;;5049759;28;20454;-80
2022/01/28 04:04:34;;;;;;;2.45;1.70;;;6.30;99.90;;;;;;5062276;28;20225;-80
2022/01/28 04:12:28;;;;;;;1.70;1.60;;;6.30;99.90;;;;;;5054218;28;20981;-80
2022/01/28 04:15:18;;;;;;;2.42;2.10;;;6.30;99.90;;;;;;5042395;28;21025;-79
2022/01/28 04:17:47;;;;;;;3.22;1.80;;;6.30;99.90;;;;;;5059479;28;20221;-79
2022/01/28 04:20:16;;;;;;;2.20;1.65;;;6.30;99.90;;;;;;5061016;28;20220;-79
2022/01/28 04:22:44;;;;;;;4.18;2.65;;;6.40;99.90;;;;;;5049866;28;20201;-79
2022/01/28 04:25:12;;;;;;;2.40;2.20;;;6.40;99.90;;;;;;5058172;28;20190;-78
2022/01/28 04:27:42;;;;;;;2.55;1.70;;;6.40;99.90;;;;;;5057699;28;20507;-79
2022/01/28 04:30:11;;;;;;;3.73;2.30;;;6.40;99.90;;;;;;5040606;28;20201;-79
2022/01/28 04:32:39;;;;;;;3.65;2.17;;;6.40;99.90;;;;;;5051084;28;20496;-78
2022/01/28 04:35:08;;;;;;;5.23;2.03;;;6.40;99.90;;;;;;5053104;28;20197;-78
2022/01/28 04:37:44;;;;;;;4.03;2.22;;;6.30;99.90;;;;;;5052425;28;20553;-80
2022/01/28 04:40:15;;;;;;;2.30;1.90;;;6.30;99.90;;;;;;5051942;28;20267;-79
2022/01/28 04:43:01;;;;;;;4.18;2.22;;;6.30;99.90;;;;;;5053824;28;20913;-79
2022/01/28 04:45:37;;;;;;;2.67;2.47;;;6.30;99.90;;;;;;5045250;28;20205;-79
2022/01/28 04:48:15;;;;;;;3.67;1.90;;;6.30;99.90;;;;;;5040072;28;20450;-79
2022/01/28 04:50:54;;;;;;;2.57;2.37;;;6.30;99.90;;;;;;5046071;28;20779;-79
2022/01/28 04:56:18;;;;;;;3.15;2.08;;;6.30;99.90;;;;;;5040948;28;20448;-79
2022/01/28 04:59:06;;;;;;;2.70;2.00;;;6.30;99.90;;;;;;5055389;28;20206;-80
2022/01/28 05:02:00;;;;;;;2.58;2.05;;;6.50;99.90;;;;;;5043725;28;20522;-79
2022/01/28 05:07:50;;;;;;;4.20;2.80;;;6.20;99.90;;;;;;5020424;28;20229;-77
2022/01/28 05:10:48;;;;;;;3.25;2.35;;;6.20;99.90;;;;;;5058509;28;20445;-79
2022/01/28 05:13:42;;;;;;;2.78;1.88;;;6.20;99.90;;;;;;5046903;28;20566;-77
2022/01/28 05:16:35;;;;;;;2.17;1.98;;;6.20;99.90;;;;;;5052710;28;20200;-80
2022/01/28 05:27:23;;;;;;;3.72;2.05;;;6.20;99.90;;;;;;5058665;28;20219;-80
2022/01/28 05:29:51;;;;;;;4.25;2.20;;;6.20;99.90;;;;;;5052717;28;20280;-79
2022/01/28 05:32:21;;;;;;;3.40;1.98;;;6.20;99.90;;;;;;5055821;28;20396;-81
2022/01/28 05:34:49;;;;;;;5.75;2.35;;;6.20;99.90;;;;;;5051633;28;20201;-81
2022/01/28 05:37:17;;;;;;;3.07;1.90;;;6.20;99.90;;;;;;5052113;28;20213;-80
2022/01/28 05:39:45;;;;;;;2.63;1.92;;;6.40;99.90;;;;;;5064542;28;20464;-80
2022/01/28 05:42:14;;;;;;;4.47;1.95;;;6.20;99.90;;;;;;5061794;28;20203;-80
2022/01/28 05:44:42;;;;;;;6.93;2.70;;;6.20;99.90;;;;;;5047652;28;20678;-80
2022/01/28 05:47:14;;;;;;;4.50;2.60;;;6.20;99.90;;;;;;5045393;28;20475;-80
2022/01/28 05:49:45;;;;;;;3.30;2.40;;;6.20;99.90;;;;;;5046516;28;20468;-80
2022/01/28 05:52:13;;;;;;;3.17;2.05;;;6.20;99.90;;;;;;5058555;28;20481;-80
2022/01/28 05:54:41;;;;;;;4.07;2.50;;;6.10;99.90;;;;;;5053990;28;21825;-82
2022/01/28 05:57:09;;;;;;;2.33;2.05;;;6.10;99.90;;;;;;5055347;28;20225;-81
2022/01/28 05:59:38;;;;;;;4.53;2.30;;;6.10;99.90;;;;;;5046805;28;20209;-82
2022/01/28 06:02:06;;;;;;;2.20;1.95;;;6.20;99.90;;;;;;5046601;28;20201;-81
2022/01/28 06:04:36;;;;;;;4.78;2.08;;;6.20;99.90;;;;;;5051411;28;20217;-81
2022/01/28 06:07:05;;;;;;;5.35;2.75;;;6.20;99.90;;;;;;5046331;28;20229;-82
2022/01/28 06:09:33;;;;;;;3.92;2.42;;;6.10;99.90;;;;;;5042702;28;20197;-80
2022/01/28 06:12:02;;;;;;;3.60;2.70;;;6.10;99.90;;;;;;5048345;28;20676;-81
2022/01/28 06:14:30;;;;;;;3.58;2.88;;;6.00;99.90;;;;;;5045833;28;20196;-78
2022/01/28 06:16:58;;;;;;;6.50;2.70;;;6.00;99.90;;;;;;5049614;28;21725;-81
2022/01/28 06:19:27;;;;;;;4.20;2.92;;;6.00;99.90;;;;;;5056557;28;20287;-79
2022/01/28 06:21:55;;;;;;;4.17;3.00;;;6.00;99.90;;;;;;5046474;28;20467;-80
2022/01/28 06:24:24;;;;;;;5.20;2.67;;;6.00;99.90;;;;;;5054845;28;20477;-80
2022/01/28 06:26:52;;;;;;;3.45;2.75;;;6.00;99.90;;;;;;5037767;28;20844;-79
2022/01/28 06:29:21;;;;;;;5.78;2.90;;;6.00;99.90;;;;;;5045134;28;20202;-79
2022/01/28 06:31:49;;;;;;;4.32;2.88;;;6.10;99.90;;;;;;5044221;28;20993;-80
2022/01/28 06:34:17;;;;;;;3.40;1.80;;;6.10;99.90;;;;;;5049029;28;20752;-80
2022/01/28 06:36:46;;;;;;;3.40;2.47;;;6.00;99.90;;;;;;5046143;28;20479;-78
2022/01/28 06:39:14;;;;;;;3.13;2.20;;;6.00;99.90;;;;;;5051677;28;20228;-81
2022/01/28 06:41:44;;;;;;;4.13;2.15;;;6.00;99.90;;;;;;5046891;28;20464;-80
2022/01/28 06:44:12;;;;;;;2.42;2.17;;;6.00;99.90;;;;;;5049542;28;20229;-80
2022/01/28 06:46:40;;;;;;;5.25;2.90;;;6.00;99.90;;;;;;5052798;28;20230;-80
2022/01/28 06:49:09;;;;;;;3.27;2.43;;;6.10;99.90;;;;;;5041087;28;20198;-80
2022/01/28 06:51:37;;;;;;;3.33;1.80;;;6.00;99.90;;;;;;5044064;28;20460;-80
2022/01/28 06:54:06;;;;;;;7.57;3.03;;;6.00;99.90;;;;;;5049188;28;20201;-79
2022/01/28 06:56:34;;;;;;;2.60;2.38;;;6.00;99.90;;;;;;5055939;28;20221;-79
2022/01/28 06:59:04;;;;;;;4.68;3.38;;;6.00;99.90;;;;;;5043382;28;20547;-80
2022/01/28 07:01:33;;;;;;;4.00;2.73;;;6.00;99.90;;;;;;5044653;28;20537;-82
2022/01/28 07:04:01;;;;;;;3.42;2.30;;;6.10;99.90;;;;;;5043123;28;20464;-80
2022/01/28 07:06:29;;;;;;;6.60;3.03;;;6.10;99.90;;;;;;5067717;28;20855;-80
2022/01/28 07:08:58;;;;;;;5.80;2.97;;;6.00;99.90;;;;;;5051710;28;20603;-80
2022/01/28 07:11:26;;;;;;;5.45;2.40;;;6.00;99.90;;;;;;5046312;28;20196;-79
2022/01/28 07:13:54;;;;;;;6.20;2.88;;;6.00;99.90;;;;;;5046857;28;20209;-80
2022/01/28 07:16:24;;;;;;;3.97;3.00;;;6.10;99.90;;;;;;5060852;28;20344;-80
2022/01/28 07:18:52;;;;;;;3.40;2.58;;;6.10;99.90;;;;;;5052504;28;20213;-80
2022/01/28 07:21:20;;;;;;;4.35;2.47;;;6.10;99.90;;;;;;5048468;28;20217;-79
2022/01/28 07:23:49;;;;;;;4.47;2.95;;;6.10;99.90;;;;;;5044182;28;20736;-81
2022/01/28 07:26:17;;;;;;;4.72;2.13;;;6.10;99.90;;;;;;5044243;28;20221;-79
2022/01/28 07:28:46;;;;;;;9.93;3.80;;;6.10;99.90;;;;;;5049613;28;20193;-78
2022/01/28 07:31:17;;;;;;;5.05;3.05;;;6.10;99.90;;;;;;5048265;28;20673;-80
2022/01/28 07:33:47;;;;;;;6.82;3.55;;;6.10;99.90;;;;;;5049576;28;20196;-79
2022/01/28 07:36:15;;;;;;;3.63;2.80;;;6.10;99.90;;;;;;5054040;28;20197;-79
2022/01/28 07:38:43;;;;;;;4.90;2.97;;;6.20;99.90;;;;;;5047703;28;20955;-79
2022/01/28 07:41:12;;;;;;;4.37;3.33;;;6.20;99.90;;;;;;5056680;28;20587;-80
2022/01/28 07:43:42;;;;;;;3.00;2.53;;;6.20;99.90;;;;;;5047843;28;20531;-79
2022/01/28 07:46:10;;;;;;;5.00;2.37;;;6.20;99.90;;;;;;5049356;28;20491;-80
2022/01/28 07:48:39;;;;;;;3.10;2.80;;;6.30;99.90;;;;;;5060628;28;20463;-80
2022/01/28 07:51:08;;;;;;;2.38;2.15;;;6.20;99.90;;;;;;5056940;28;20455;-79
2022/01/28 07:53:36;;;;;;;4.80;3.13;;;6.20;99.90;;;;;;5046375;28;20633;-79
2022/01/28 07:56:05;;;;;;;7.88;3.15;;;6.10;99.90;;;;;;5050785;28;20451;-78
2022/01/28 07:58:33;;;;;;;4.18;2.00;;;6.20;99.90;;;;;;5047411;28;20199;-80
2022/01/28 08:01:01;;;;;;;5.57;3.47;;;6.20;99.90;;;;;;5046668;28;20197;-78
2022/01/28 08:03:30;;;;;;;6.55;3.50;;;6.30;99.90;;;;;;5047892;28;20888;-80
2022/01/28 08:05:58;;;;;;;5.90;3.30;;;6.30;99.90;;;;;;5046868;28;20762;-80
2022/01/28 08:08:28;;;;;;;4.10;2.27;;;6.30;99.90;;;;;;5038040;28;20451;-79
2022/01/28 08:10:57;;;;;;;2.20;1.97;;;6.40;99.90;;;;;;5053523;28;20448;-79
2022/01/28 08:13:25;;;;;;;6.00;3.55;;;6.50;99.90;;;;;;5052279;28;20443;-79
2022/01/28 08:15:53;;;;;;;4.70;2.40;;;6.50;99.90;;;;;;5048314;28;20197;-79
2022/01/28 08:18:22;;;;;;;6.70;2.50;;;6.50;99.90;;;;;;5054489;28;21045;-79
2022/01/28 08:20:50;;;;;;;4.70;2.27;;;6.60;99.90;;;;;;5055341;28;20650;-79
2022/01/28 08:23:19;;;;;;;4.82;2.42;;;6.60;99.90;;;;;;5055345;28;20452;-79
2022/01/28 08:25:53;;;;;;;3.40;2.00;;;6.50;99.90;;;;;;5050745;28;20216;-79
2022/01/28 08:28:22;;;;;;;4.03;2.93;;;6.60;99.90;;;;;;5050053;28;20462;-79
2022/01/28 08:30:50;;;;;;;3.30;1.80;;;6.70;99.90;;;;;;5050150;28;20947;-80
2022/01/28 08:33:18;;;;;;;3.53;2.13;;;6.70;99.90;;;;;;5063095;28;20520;-79
2022/01/28 08:35:52;;;;;;;4.45;2.60;;;6.70;99.90;;;;;;5053867;28;20856;-79
2022/01/28 08:38:27;;;;;;;2.10;1.73;;;6.80;99.90;;;;;;5057366;28;20238;-80
2022/01/28 08:40:59;;;;;;;6.00;2.07;;;6.70;99.90;;;;;;5054718;28;20475;-79
2022/01/28 08:43:28;;;;;;;5.88;2.25;;;6.70;99.90;;;;;;5048629;28;20540;-79
2022/01/28 08:45:56;;;;;;;4.77;1.93;;;6.80;99.90;;;;;;5034334;28;20210;-80
2022/01/28 08:48:24;;;;;;;3.40;2.17;;;6.80;99.90;;;;;;5051090;28;20989;-79
2022/01/28 08:50:53;;;;;;;3.60;2.30;;;6.80;99.90;;;;;;5047157;28;20461;-80
2022/01/28 08:53:21;;;;;;;3.07;1.80;;;6.80;99.90;;;;;;5056096;28;20530;-79
2022/01/28 08:55:49;;;;;;;2.90;2.30;;;6.90;99.90;;;;;;5046046;28;20459;-79
2022/01/28 08:58:24;;;;;;;3.10;2.67;;;7.00;99.90;;;;;;5062209;28;20470;-80
2022/01/28 09:00:52;;;;;;;4.50;2.50;;;7.10;99.90;;;;;;5045959;28;21041;-80
2022/01/28 09:03:22;;;;;;;4.50;2.30;;;7.10;99.90;;;;;;5050472;28;20449;-79
2022/01/28 09:05:51;;;;;;;2.93;2.47;;;7.10;99.90;;;;;;5044510;28;20479;-80
2022/01/28 09:08:20;;;;;;;4.00;2.30;;;7.10;99.90;;;;;;5050321;28;21042;-80
2022/01/28 09:10:57;;;;;;;4.20;1.80;;;7.20;99.90;;;;;;5055426;28;20452;-80
2022/01/28 09:13:30;;;;;;;3.60;1.80;;;7.20;99.90;;;;;;5061830;28;20959;-80
2022/01/28 09:15:58;;;;;;;3.77;1.87;;;7.20;99.90;;;;;;5042429;28;20440;-81
2022/01/28 09:18:27;;;;;;;2.00;1.80;;;7.20;99.90;;;;;;5045249;28;20459;-80
2022/01/28 09:20:55;;;;;;;2.47;1.83;;;7.20;99.90;;;;;;5044494;28;20453;-80
2022/01/28 09:23:24;;;;;;;3.00;1.97;;;7.20;99.90;;;;;;5046764;28;21244;-80
2022/01/28 09:25:52;;;;;;;5.03;2.40;;;7.30;99.90;;;;;;5047080;28;20489;-79
2022/01/28 09:28:20;;;;;;;2.73;2.20;;;7.20;99.90;;;;;;5057843;28;20896;-79
2022/01/28 09:30:50;;;;;;;3.50;2.50;;;7.30;99.90;;;;;;5042193;28;20455;-80
2022/01/28 09:33:19;;;;;;;3.13;1.93;;;7.30;99.90;;;;;;5057659;28;20458;-80
2022/01/28 09:35:48;;;;;;;4.47;2.00;;;7.30;99.90;;;;;;5050638;28;20563;-80
2022/01/28 09:38:17;;;;;;;4.97;2.40;;;7.40;99.90;;;;;;5041678;28;20479;-79
2022/01/28 09:40:45;;;;;;;2.47;1.50;;;7.40;99.90;;;;;;5047855;28;20458;-79
2022/01/28 09:43:14;;;;;;;3.33;1.70;;;7.40;99.90;;;;;;5042250;28;20459;-81
2022/01/28 09:45:42;;;;;;;5.50;2.00;;;7.40;99.90;;;;;;5039275;28;20484;-80
2022/01/28 09:48:12;;;;;;;2.77;1.60;;;7.60;99.90;;;;;;5056572;28;20470;-80
2022/01/28 09:50:40;;;;;;;2.40;1.63;;;7.40;99.90;;;;;;5048199;28;20570;-80
2022/01/28 09:53:09;;;;;;;5.40;2.43;;;7.40;99.90;;;;;;5057276;28;20468;-79
2022/01/28 09:55:45;;;;;;;3.30;1.90;;;7.40;99.90;;;;;;5042497;28;20869;-80
2022/01/28 09:58:13;;;;;;;4.03;1.77;;;7.40;99.90;;;;;;5044956;28;20476;-79
2022/01/28 10:00:42;;;;;;;3.40;2.03;;;7.50;99.90;;;;;;5045714;28;20557;-80
2022/01/28 10:03:15;;;;;;;2.70;1.73;;;7.10;99.90;;;;;;5048720;28;20470;-79
2022/01/28 10:05:45;;;;;;;3.00;2.63;;;7.50;99.90;;;;;;5050350;28;20459;-79
2022/01/28 10:08:15;;;;;;;2.80;2.10;;;7.50;99.90;;;;;;5045288;28;20487;-79
2022/01/28 10:10:56;;;;;;;2.40;1.40;;;7.60;99.90;;;;;;5048033;28;20451;-81
2022/01/28 10:13:30;;;;;;;3.93;1.30;;;7.60;99.90;;;;;;5055403;28;20458;-80
2022/01/28 10:16:06;;;;;;;1.90;1.70;;;7.60;99.90;;;;;;5051657;28;20445;-80
2022/01/28 10:18:57;;;;;;;2.03;1.50;;;7.70;99.90;;;;;;5042520;28;20443;-80
2022/01/28 10:21:30;;;;;;;2.20;1.20;;;7.70;99.90;;;;;;5041134;28;20957;-80
2022/01/28 10:24:05;;;;;;;3.27;1.30;;;7.80;99.90;;;;;;5044107;28;20462;-80
2022/01/28 10:26:37;;;;;;;2.37;1.37;;;7.90;99.90;;;;;;5047009;28;20852;-79
2022/01/28 10:29:07;;;;;;;2.87;2.07;;;7.90;99.90;;;;;;5050208;28;20452;-78
2022/01/28 10:31:43;;;;;;;1.83;1.10;;;7.90;99.90;;;;;;5046432;28;21017;-80
2022/01/28 10:34:22;;;;;;;4.80;1.30;;;7.90;99.90;;;;;;5042732;28;20457;-80
2022/01/28 10:36:52;;;;;;;1.60;1.03;;;7.90;99.90;;;;;;5037912;28;20473;-79
2022/01/28 10:39:24;;;;;;;1.67;1.10;;;8.10;99.90;;;;;;5053331;28;20535;-79
2022/01/28 10:41:55;;;;;;;2.10;0.90;;;8.30;99.90;;;;;;5054768;28;20452;-80
2022/01/28 10:44:26;;;;;;;2.63;1.40;;;8.50;99.90;;;;;;5059650;28;20755;-81
2022/01/28 10:46:58;;;;;;;2.20;1.50;;;8.60;99.90;;;;;;5051050;28;20491;-81
2022/01/28 10:49:36;;;;;;;1.50;1.10;;;8.70;99.90;;;;;;5046143;28;21571;-81
2022/01/28 10:52:07;;;;;;;4.10;1.60;;;8.70;99.90;;;;;;5057901;28;20471;-81
2022/01/28 10:54:36;;;;;;;2.40;1.37;;;8.70;99.90;;;;;;5051613;28;20462;-80
2022/01/28 10:57:07;;;;;;;1.80;1.23;;;8.70;99.90;;;;;;5050241;28;20485;-80
2022/01/28 10:59:37;;;;;;;2.33;1.10;;;8.70;99.90;;;;;;5063409;28;20467;-80
2022/01/28 11:02:07;;;;;;;2.03;0.90;;;8.60;99.90;;;;;;5048191;28;20492;-80
2022/01/28 11:04:40;;;;;;;2.60;1.10;;;8.60;99.90;;;;;;5055919;28;20497;-80
2022/01/28 11:07:09;;;;;;;1.03;0.90;;;8.60;99.90;;;;;;5055949;28;20520;-80
2022/01/28 11:09:38;;;;;;;1.97;0.70;;;8.50;99.90;;;;;;5058210;28;20457;-79
2022/01/28 11:12:08;;;;;;;1.00;0.70;;;8.50;99.90;;;;;;5060127;28;20469;-80
2022/01/28 11:14:37;;;;;;;2.40;1.00;;;8.50;99.90;;;;;;5050082;28;20464;-79
2022/01/28 11:17:05;;;;;;;2.60;0.93;;;8.40;99.90;;;;;;5044150;28;20465;-80
2022/01/28 11:19:37;;;;;;;1.63;1.10;;;8.40;99.90;;;;;;5050791;28;20467;-80
2022/01/28 11:22:22;;;;;;;2.23;1.37;;;8.50;99.90;;;;;;5050621;28;20448;-80
2022/01/28 11:25:06;;;;;;;2.97;1.03;;;8.80;99.90;;;;;;5052256;28;20446;-80
2022/01/28 11:27:37;;;;;;;2.37;1.07;;;8.90;99.90;;;;;;5056149;28;20519;-81
2022/01/28 11:30:16;;;;;;;2.03;1.00;;;9.00;99.90;;;;;;5050712;28;20451;-80
2022/01/28 11:32:59;;;;;;;1.23;0.90;;;9.00;99.90;;;;;;5047319;28;20905;-80
2022/01/28 11:35:33;;;;;;;1.27;1.00;;;8.90;99.90;;;;;;5056149;28;20463;-80
2022/01/28 11:38:24;;;;;;;2.87;1.00;;;8.80;99.90;;;;;;5057488;28;20481;-78
2022/01/28 11:40:54;;;;;;;2.97;0.97;;;8.80;99.90;;;;;;5047011;28;20450;-81
2022/01/28 11:43:24;;;;;;;1.27;1.17;;;8.80;99.90;;;;;;5061943;28;20479;-80
2022/01/28 11:46:06;;;;;;;5.43;2.13;;;8.80;99.90;;;;;;5047462;28;20490;-80
2022/01/28 11:49:14;;;;;;;2.33;1.03;;;8.70;99.90;;;;;;5054200;28;20483;-81
2022/01/28 11:51:43;;;;;;;5.57;1.90;;;8.60;99.90;;;;;;5044145;28;20810;-80
2022/01/28 11:54:15;;;;;;;1.73;1.60;;;8.70;99.90;;;;;;5054863;28;20454;-79
2022/01/28 11:57:16;;;;;;;1.73;0.90;;;8.70;99.90;;;;;;5055713;28;20486;-80
2022/01/28 11:59:46;;;;;;;1.50;1.00;;;8.80;99.90;;;;;;5046916;28;21008;-76
2022/01/28 12:02:17;;;;;;;1.90;1.37;;;8.80;99.90;;;;;;5057044;28;20886;-80
2022/01/28 12:04:46;;;;;;;0.80;0.80;;;8.80;99.90;;;;;;5051249;28;20461;-74
2022/01/28 12:07:18;;;;;;;1.30;1.20;;;8.70;99.90;;;;;;5057867;28;20498;-81
2022/01/28 12:09:50;;;;;;;3.73;1.00;;;8.60;99.90;;;;;;5052941;28;20484;-77
2022/01/28 12:12:44;;;;;;;1.50;1.23;;;8.60;99.90;;;;;;5051867;28;20449;-77
2022/01/28 12:15:15;;;;;;;1.40;0.93;;;8.70;99.90;;;;;;5045995;28;20479;-80
2022/01/28 12:17:46;;;;;;;1.40;1.20;;;8.80;99.90;;;;;;5045471;28;21041;-80
2022/01/28 12:20:52;;;;;;;3.33;0.90;;;8.80;99.90;;;;;;5048055;28;20453;-80
2022/01/28 12:23:30;;;;;;;2.97;1.13;;;9.00;99.90;;;;;;5055158;28;20464;-79
2022/01/28 12:26:00;;;;;;;3.63;1.33;;;9.10;99.90;;;;;;5044865;28;20469;-80
2022/01/28 12:28:54;;;;;;;2.97;1.00;;;9.20;99.90;;;;;;5044535;28;21158;-80
2022/01/28 12:31:29;;;;;;;1.30;1.20;;;9.20;99.90;;;;;;5045830;28;20466;-79
2022/01/28 12:34:00;;;;;;;1.90;1.07;;;9.20;99.90;;;;;;5046450;28;20458;-81
2022/01/28 12:36:30;;;;;;;3.20;1.03;;;9.20;99.90;;;;;;5049838;28;20477;-80
2022/01/28 12:39:09;;;;;;;1.70;0.77;;;9.20;99.90;;;;;;5051334;28;21035;-80
2022/01/28 12:41:52;;;;;;;2.50;1.00;;;9.20;99.90;;;;;;5046422;28;20453;-80
2022/01/28 12:44:21;;;;;;;1.37;1.27;;;9.10;99.90;;;;;;5056269;28;20457;-80
2022/01/28 12:46:58;;;;;;;3.13;0.90;;;9.20;99.90;;;;;;5051945;28;20486;-79
2022/01/28 12:49:29;;;;;;;1.77;1.27;;;9.20;99.90;;;;;;5044794;28;20450;-80
2022/01/28 12:52:00;;;;;;;2.20;0.93;;;9.10;99.90;;;;;;5044543;28;20456;-79
2022/01/28 12:54:34;;;;;;;4.13;1.00;;;9.20;99.90;;;;;;5044199;28;20445;-80
2022/01/28 12:57:05;;;;;;;0.80;0.80;;;9.10;99.90;;;;;;5041639;28;21047;-80
2022/01/28 12:59:33;;;;;;;1.10;1.00;;;9.10;99.90;;;;;;5043297;28;20461;-80
2022/01/28 13:02:02;;;;;;;0.80;0.80;;;9.10;99.90;;;;;;5045465;28;20878;-80
2022/01/28 13:04:51;;;;;;;2.93;1.17;;;9.10;99.90;;;;;;5037083;28;20459;-81
2022/01/28 13:10:07;;;;;;;2.70;1.50;;;9.10;99.90;;;;;;5048509;28;20521;-79
2022/01/28 13:12:37;;;;;;;2.53;1.40;;;9.10;99.90;;;;;;5049611;28;20453;-80
2022/01/28 13:15:08;;;;;;;3.03;1.70;;;9.10;99.90;;;;;;5046475;28;20537;-79
2022/01/28 13:17:37;;;;;;;1.83;1.00;;;9.00;99.90;;;;;;5040174;28;20455;-80
2022/01/28 13:20:09;;;;;;;3.50;1.40;;;9.00;99.90;;;;;;5046371;28;20638;-77
2022/01/28 13:22:40;;;;;;;1.90;1.77;;;8.90;99.90;;;;;;5048675;28;20458;-78
2022/01/28 13:25:19;;;;;;;4.40;1.33;;;8.90;99.90;;;;;;5049033;28;20507;-80
2022/01/28 13:27:54;;;;;;;2.33;1.40;;;8.80;99.90;;;;;;5036020;28;20473;-80
2022/01/28 13:30:23;;;;;;;2.53;1.83;;;8.80;99.90;;;;;;5044780;28;20830;-80
2022/01/28 13:32:53;;;;;;;2.80;1.50;;;8.70;99.90;;;;;;5036239;28;20475;-81
2022/01/28 13:35:23;;;;;;;6.83;2.37;;;8.90;99.90;;;;;;5048808;28;21371;-80
2022/01/28 13:37:53;;;;;;;4.37;1.70;;;8.60;99.90;;;;;;5047172;28;20505;-80
2022/01/28 13:40:34;;;;;;;4.20;2.17;;;8.50;99.90;;;;;;5053666;28;20445;-80
2022/01/28 13:43:06;;;;;;;5.97;2.17;;;8.50;99.90;;;;;;5048393;28;20459;-79
2022/01/28 13:45:38;;;;;;;4.80;1.80;;;8.50;99.90;;;;;;5047851;28;20453;-78
2022/01/28 13:48:08;;;;;;;4.37;1.90;;;8.40;99.90;;;;;;5047238;28;20467;-79
2022/01/28 13:50:39;;;;;;;2.77;1.97;;;8.40;99.90;;;;;;5046907;28;20537;-79
2022/01/28 13:53:34;;;;;;;2.33;1.77;;;8.40;99.90;;;;;;5041715;28;21025;-81
2022/01/28 13:56:11;;;;;;;3.67;1.90;;;8.40;99.90;;;;;;5043821;28;20499;-80
2022/01/28 13:58:51;;;;;;;3.80;2.03;;;8.50;99.90;;;;;;5049574;28;20433;-80
2022/01/28 14:01:21;;;;;;;5.17;2.40;;;8.50;99.90;;;;;;5047396;28;20452;-78
2022/01/28 14:03:55;;;;;;;3.13;1.87;;;8.50;99.90;;;;;;5039021;28;20819;-80
2022/01/28 14:06:26;;;;;;;3.40;2.30;;;8.50;99.90;;;;;;5033219;28;20497;-78
2022/01/28 14:09:19;;;;;;;2.90;1.97;;;8.50;99.90;;;;;;5040285;28;20630;-80
2022/01/28 14:11:51;;;;;;;8.67;2.20;;;8.50;99.90;;;;;;5035708;28;20485;-79